sensor_id;sensor_type;location;lat;lon;timestamp;P1;durP1;ratioP1;P2;durP2;ratioP2
9007;SDS011;62813;51.424;6.762;2023-09-12T00:01:36;18.03;;;14.00;;
9007;SDS011;62813;51.424;6.762;2023-09-12T00:04:02;16.17;;;12.90;;
9007;SDS011;62813;51.424;6.762;2023-09-12T00:06:29;18.27;;;13.17;;
9007;SDS011;62813;51.424;6.762;2023-09-12T00:08:56;18.20;;;12.83;;
9007;SDS011;62813;51.424;6.762;2023-09-12T00:11:23;20.43;;;13.23;;
9007;SDS011;62813;51.424;6.762;2023-09-12T00:13:53;19.17;;;13.23;;
9007;SDS011;62813;51.424;6.762;2023-09-12T00:16:19;24.67;;;13.27;;
9007;SDS011;62813;51.424;6.762;2023-09-12T00:18:46;14.20;;;11.90;;
9007;SDS011;62813;51.424;6.762;2023-09-12T00:21:13;15.57;;;12.40;;
9007;SDS011;62813;51.424;6.762;2023-09-12T00:23:40;19.90;;;13.90;;
9007;SDS011;62813;51.424;6.762;2023-09-12T00:26:07;21.00;;;15.57;;
9007;SDS011;62813;51.424;6.762;2023-09-12T00:28:33;21.30;;;15.30;;
9007;SDS011;62813;51.424;6.762;2023-09-12T00:31:00;18.23;;;14.50;;
9007;SDS011;62813;51.424;6.762;2023-09-12T00:33:27;20.40;;;15.07;;
9007;SDS011;62813;51.424;6.762;2023-09-12T00:35:54;26.97;;;17.77;;
9007;SDS011;62813;51.424;6.762;2023-09-12T00:38:21;25.17;;;17.10;;
9007;SDS011;62813;51.424;6.762;2023-09-12T00:40:47;30.40;;;17.13;;
9007;SDS011;62813;51.424;6.762;2023-09-12T00:43:15;19.73;;;15.30;;
9007;SDS011;62813;51.424;6.762;2023-09-12T00:45:42;21.93;;;16.73;;
9007;SDS011;62813;51.424;6.762;2023-09-12T00:48:09;23.17;;;15.37;;
9007;SDS011;62813;51.424;6.762;2023-09-12T00:50:39;20.73;;;15.20;;
9007;SDS011;62813;51.424;6.762;2023-09-12T00:53:06;21.13;;;14.73;;
9007;SDS011;62813;51.424;6.762;2023-09-12T00:55:33;22.90;;;14.63;;
9007;SDS011;62813;51.424;6.762;2023-09-12T00:58:03;23.17;;;15.33;;
9007;SDS011;62813;51.424;6.762;2023-09-12T01:00:30;21.17;;;15.27;;
9007;SDS011;62813;51.424;6.762;2023-09-12T01:02:57;25.70;;;14.70;;
9007;SDS011;62813;51.424;6.762;2023-09-12T01:05:24;17.53;;;14.23;;
9007;SDS011;62813;51.424;6.762;2023-09-12T01:07:51;15.40;;;11.47;;
9007;SDS011;62813;51.424;6.762;2023-09-12T01:10:19;17.13;;;13.97;;
9007;SDS011;62813;51.424;6.762;2023-09-12T01:12:45;20.17;;;12.57;;
9007;SDS011;62813;51.424;6.762;2023-09-12T01:15:12;16.50;;;12.50;;
9007;SDS011;62813;51.424;6.762;2023-09-12T01:17:43;19.70;;;12.53;;
9007;SDS011;62813;51.424;6.762;2023-09-12T01:20:11;16.23;;;11.80;;
9007;SDS011;62813;51.424;6.762;2023-09-12T01:25:38;17.37;;;11.87;;
9007;SDS011;62813;51.424;6.762;2023-09-12T01:28:09;14.73;;;11.43;;
9007;SDS011;62813;51.424;6.762;2023-09-12T01:30:36;12.90;;;11.50;;
9007;SDS011;62813;51.424;6.762;2023-09-12T01:33:05;14.10;;;10.70;;
9007;SDS011;62813;51.424;6.762;2023-09-12T01:35:33;13.43;;;10.93;;
9007;SDS011;62813;51.424;6.762;2023-09-12T01:37:59;12.63;;;10.27;;
9007;SDS011;62813;51.424;6.762;2023-09-12T01:40:48;17.23;;;11.77;;
9007;SDS011;62813;51.424;6.762;2023-09-12T01:43:15;13.00;;;10.60;;
9007;SDS011;62813;51.424;6.762;2023-09-12T01:45:47;12.30;;;10.20;;
9007;SDS011;62813;51.424;6.762;2023-09-12T01:48:22;12.30;;;9.87;;
9007;SDS011;62813;51.424;6.762;2023-09-12T01:50:53;13.47;;;10.60;;
9007;SDS011;62813;51.424;6.762;2023-09-12T01:53:20;10.30;;;9.27;;
9007;SDS011;62813;51.424;6.762;2023-09-12T01:55:47;16.03;;;10.20;;
9007;SDS011;62813;51.424;6.762;2023-09-12T01:58:14;11.60;;;9.77;;
9007;SDS011;62813;51.424;6.762;2023-09-12T02:00:41;14.03;;;10.23;;
9007;SDS011;62813;51.424;6.762;2023-09-12T02:03:08;14.20;;;10.40;;
9007;SDS011;62813;51.424;6.762;2023-09-12T02:05:35;12.40;;;10.90;;
9007;SDS011;62813;51.424;6.762;2023-09-12T02:08:07;13.53;;;10.17;;
9007;SDS011;62813;51.424;6.762;2023-09-12T02:10:33;13.20;;;11.63;;
9007;SDS011;62813;51.424;6.762;2023-09-12T02:13:00;11.53;;;10.40;;
9007;SDS011;62813;51.424;6.762;2023-09-12T02:15:27;14.07;;;11.37;;
9007;SDS011;62813;51.424;6.762;2023-09-12T02:17:53;14.20;;;11.33;;
9007;SDS011;62813;51.424;6.762;2023-09-12T02:20:20;16.13;;;12.00;;
9007;SDS011;62813;51.424;6.762;2023-09-12T02:22:47;16.20;;;11.63;;
9007;SDS011;62813;51.424;6.762;2023-09-12T02:25:20;11.57;;;10.37;;
9007;SDS011;62813;51.424;6.762;2023-09-12T02:27:47;14.83;;;11.27;;
9007;SDS011;62813;51.424;6.762;2023-09-12T02:30:13;14.47;;;11.63;;
9007;SDS011;62813;51.424;6.762;2023-09-12T02:32:41;13.20;;;11.10;;
9007;SDS011;62813;51.424;6.762;2023-09-12T02:35:08;13.90;;;11.67;;
9007;SDS011;62813;51.424;6.762;2023-09-12T02:37:35;12.33;;;10.87;;
9007;SDS011;62813;51.424;6.762;2023-09-12T02:40:02;12.63;;;11.43;;
9007;SDS011;62813;51.424;6.762;2023-09-12T02:42:31;13.90;;;12.50;;
9007;SDS011;62813;51.424;6.762;2023-09-12T02:44:59;11.90;;;10.70;;
9007;SDS011;62813;51.424;6.762;2023-09-12T02:47:25;12.67;;;11.37;;
9007;SDS011;62813;51.424;6.762;2023-09-12T02:49:52;15.10;;;11.37;;
9007;SDS011;62813;51.424;6.762;2023-09-12T02:52:19;14.07;;;11.70;;
9007;SDS011;62813;51.424;6.762;2023-09-12T02:54:45;18.10;;;12.17;;
9007;SDS011;62813;51.424;6.762;2023-09-12T02:57:12;12.93;;;11.60;;
9007;SDS011;62813;51.424;6.762;2023-09-12T02:59:39;14.47;;;12.43;;
9007;SDS011;62813;51.424;6.762;2023-09-12T03:02:06;16.37;;;14.37;;
9007;SDS011;62813;51.424;6.762;2023-09-12T03:04:34;16.53;;;12.90;;
9007;SDS011;62813;51.424;6.762;2023-09-12T03:07:01;16.40;;;13.30;;
9007;SDS011;62813;51.424;6.762;2023-09-12T03:09:28;13.37;;;12.07;;
9007;SDS011;62813;51.424;6.762;2023-09-12T03:11:55;17.27;;;12.40;;
9007;SDS011;62813;51.424;6.762;2023-09-12T03:14:22;16.23;;;12.80;;
9007;SDS011;62813;51.424;6.762;2023-09-12T03:16:48;14.90;;;13.27;;
9007;SDS011;62813;51.424;6.762;2023-09-12T03:19:15;16.67;;;14.87;;
9007;SDS011;62813;51.424;6.762;2023-09-12T03:21:42;16.13;;;14.40;;
9007;SDS011;62813;51.424;6.762;2023-09-12T03:24:08;14.93;;;13.27;;
9007;SDS011;62813;51.424;6.762;2023-09-12T03:26:35;24.30;;;15.87;;
9007;SDS011;62813;51.424;6.762;2023-09-12T03:29:03;17.03;;;15.23;;
9007;SDS011;62813;51.424;6.762;2023-09-12T03:31:30;17.83;;;15.40;;
9007;SDS011;62813;51.424;6.762;2023-09-12T03:33:57;19.80;;;17.23;;
9007;SDS011;62813;51.424;6.762;2023-09-12T03:36:24;19.37;;;17.30;;
9007;SDS011;62813;51.424;6.762;2023-09-12T03:38:51;18.67;;;16.30;;
9007;SDS011;62813;51.424;6.762;2023-09-12T03:41:18;18.40;;;16.50;;
9007;SDS011;62813;51.424;6.762;2023-09-12T03:43:44;19.47;;;17.03;;
9007;SDS011;62813;51.424;6.762;2023-09-12T03:46:11;23.80;;;16.37;;
9007;SDS011;62813;51.424;6.762;2023-09-12T03:48:38;20.57;;;17.57;;
9007;SDS011;62813;51.424;6.762;2023-09-12T03:51:05;25.20;;;18.80;;
9007;SDS011;62813;51.424;6.762;2023-09-12T03:53:31;21.33;;;18.20;;
9007;SDS011;62813;51.424;6.762;2023-09-12T03:55:58;20.97;;;18.60;;
9007;SDS011;62813;51.424;6.762;2023-09-12T03:58:26;22.27;;;20.07;;
9007;SDS011;62813;51.424;6.762;2023-09-12T04:00:52;21.50;;;19.30;;
9007;SDS011;62813;51.424;6.762;2023-09-12T04:03:19;22.60;;;20.30;;
9007;SDS011;62813;51.424;6.762;2023-09-12T04:05:47;21.97;;;19.00;;
9007;SDS011;62813;51.424;6.762;2023-09-12T04:08:14;24.37;;;20.97;;
9007;SDS011;62813;51.424;6.762;2023-09-12T04:10:41;23.60;;;20.50;;
9007;SDS011;62813;51.424;6.762;2023-09-12T04:13:09;24.03;;;21.63;;
9007;SDS011;62813;51.424;6.762;2023-09-12T04:15:35;27.17;;;19.73;;
9007;SDS011;62813;51.424;6.762;2023-09-12T04:18:02;22.07;;;19.27;;
9007;SDS011;62813;51.424;6.762;2023-09-12T04:20:30;22.90;;;20.57;;
9007;SDS011;62813;51.424;6.762;2023-09-12T04:22:56;23.33;;;20.83;;
9007;SDS011;62813;51.424;6.762;2023-09-12T04:25:23;21.47;;;19.20;;
9007;SDS011;62813;51.424;6.762;2023-09-12T04:27:50;24.43;;;19.97;;
9007;SDS011;62813;51.424;6.762;2023-09-12T04:30:16;24.37;;;21.87;;
9007;SDS011;62813;51.424;6.762;2023-09-12T04:32:43;22.67;;;19.73;;
9007;SDS011;62813;51.424;6.762;2023-09-12T04:35:10;29.10;;;24.90;;
9007;SDS011;62813;51.424;6.762;2023-09-12T04:37:37;24.00;;;21.43;;
9007;SDS011;62813;51.424;6.762;2023-09-12T04:40:04;22.90;;;20.43;;
9007;SDS011;62813;51.424;6.762;2023-09-12T04:42:32;20.93;;;18.57;;
9007;SDS011;62813;51.424;6.762;2023-09-12T04:44:59;21.53;;;19.13;;
9007;SDS011;62813;51.424;6.762;2023-09-12T04:47:26;24.47;;;21.47;;
9007;SDS011;62813;51.424;6.762;2023-09-12T04:49:54;22.07;;;19.63;;
9007;SDS011;62813;51.424;6.762;2023-09-12T04:52:20;22.97;;;20.07;;
9007;SDS011;62813;51.424;6.762;2023-09-12T04:54:47;22.23;;;18.60;;
9007;SDS011;62813;51.424;6.762;2023-09-12T04:57:17;22.03;;;19.37;;
9007;SDS011;62813;51.424;6.762;2023-09-12T04:59:43;24.70;;;20.07;;
9007;SDS011;62813;51.424;6.762;2023-09-12T05:02:10;20.93;;;18.67;;
9007;SDS011;62813;51.424;6.762;2023-09-12T05:04:36;21.83;;;19.43;;
9007;SDS011;62813;51.424;6.762;2023-09-12T05:07:03;22.60;;;20.17;;
9007;SDS011;62813;51.424;6.762;2023-09-12T05:09:30;21.07;;;18.97;;
9007;SDS011;62813;51.424;6.762;2023-09-12T05:11:57;21.87;;;19.57;;
9007;SDS011;62813;51.424;6.762;2023-09-12T05:14:23;21.27;;;19.13;;
9007;SDS011;62813;51.424;6.762;2023-09-12T05:16:50;22.33;;;20.00;;
9007;SDS011;62813;51.424;6.762;2023-09-12T05:19:17;22.67;;;20.23;;
9007;SDS011;62813;51.424;6.762;2023-09-12T05:21:43;22.97;;;20.57;;
9007;SDS011;62813;51.424;6.762;2023-09-12T05:24:10;21.83;;;19.63;;
9007;SDS011;62813;51.424;6.762;2023-09-12T05:26:37;20.13;;;18.03;;
9007;SDS011;62813;51.424;6.762;2023-09-12T05:29:06;21.50;;;18.43;;
9007;SDS011;62813;51.424;6.762;2023-09-12T05:31:33;22.60;;;19.23;;
9007;SDS011;62813;51.424;6.762;2023-09-12T05:34:00;22.37;;;19.97;;
9007;SDS011;62813;51.424;6.762;2023-09-12T05:36:27;22.63;;;20.23;;
9007;SDS011;62813;51.424;6.762;2023-09-12T05:38:54;28.50;;;23.50;;
9007;SDS011;62813;51.424;6.762;2023-09-12T05:41:23;24.60;;;21.47;;
9007;SDS011;62813;51.424;6.762;2023-09-12T05:43:50;26.47;;;21.77;;
9007;SDS011;62813;51.424;6.762;2023-09-12T05:46:17;25.30;;;20.47;;
9007;SDS011;62813;51.424;6.762;2023-09-12T05:48:43;24.87;;;20.93;;
9007;SDS011;62813;51.424;6.762;2023-09-12T05:51:12;25.30;;;20.83;;
9007;SDS011;62813;51.424;6.762;2023-09-12T05:53:38;23.70;;;20.63;;
9007;SDS011;62813;51.424;6.762;2023-09-12T05:56:05;24.07;;;21.07;;
9007;SDS011;62813;51.424;6.762;2023-09-12T05:58:32;24.10;;;21.07;;
9007;SDS011;62813;51.424;6.762;2023-09-12T06:01:00;27.53;;;21.13;;
9007;SDS011;62813;51.424;6.762;2023-09-12T06:03:27;23.87;;;20.53;;
9007;SDS011;62813;51.424;6.762;2023-09-12T06:05:54;23.77;;;20.37;;
9007;SDS011;62813;51.424;6.762;2023-09-12T06:08:20;27.93;;;22.77;;
9007;SDS011;62813;51.424;6.762;2023-09-12T06:10:47;32.03;;;23.70;;
9007;SDS011;62813;51.424;6.762;2023-09-12T06:13:15;31.87;;;22.30;;
9007;SDS011;62813;51.424;6.762;2023-09-12T06:15:41;30.57;;;22.03;;
9007;SDS011;62813;51.424;6.762;2023-09-12T06:18:08;67.10;;;30.97;;
9007;SDS011;62813;51.424;6.762;2023-09-12T06:20:35;33.60;;;21.97;;
9007;SDS011;62813;51.424;6.762;2023-09-12T06:23:02;17.20;;;11.50;;
9007;SDS011;62813;51.424;6.762;2023-09-12T06:25:29;15.67;;;6.70;;
9007;SDS011;62813;51.424;6.762;2023-09-12T06:27:56;9.30;;;4.37;;
9007;SDS011;62813;51.424;6.762;2023-09-12T06:30:23;5.33;;;3.00;;
9007;SDS011;62813;51.424;6.762;2023-09-12T06:32:49;5.13;;;3.33;;
9007;SDS011;62813;51.424;6.762;2023-09-12T06:35:16;7.67;;;4.60;;
9007;SDS011;62813;51.424;6.762;2023-09-12T06:37:43;7.10;;;4.87;;
9007;SDS011;62813;51.424;6.762;2023-09-12T06:40:10;12.70;;;5.90;;
9007;SDS011;62813;51.424;6.762;2023-09-12T06:42:37;9.70;;;6.00;;
9007;SDS011;62813;51.424;6.762;2023-09-12T06:45:04;12.17;;;6.33;;
9007;SDS011;62813;51.424;6.762;2023-09-12T06:47:31;11.80;;;6.23;;
9007;SDS011;62813;51.424;6.762;2023-09-12T06:49:57;12.20;;;5.77;;
9007;SDS011;62813;51.424;6.762;2023-09-12T06:52:24;6.23;;;4.53;;
9007;SDS011;62813;51.424;6.762;2023-09-12T06:54:51;7.17;;;4.10;;
9007;SDS011;62813;51.424;6.762;2023-09-12T06:57:18;4.83;;;3.30;;
9007;SDS011;62813;51.424;6.762;2023-09-12T06:59:44;11.70;;;7.77;;
9007;SDS011;62813;51.424;6.762;2023-09-12T07:02:11;9.43;;;6.57;;
9007;SDS011;62813;51.424;6.762;2023-09-12T07:04:39;6.23;;;4.17;;
9007;SDS011;62813;51.424;6.762;2023-09-12T07:07:06;6.23;;;3.47;;
9007;SDS011;62813;51.424;6.762;2023-09-12T07:09:33;5.10;;;2.67;;
9007;SDS011;62813;51.424;6.762;2023-09-12T07:12:00;24.57;;;16.17;;
9007;SDS011;62813;51.424;6.762;2023-09-12T07:14:26;89.93;;;75.13;;
9007;SDS011;62813;51.424;6.762;2023-09-12T07:16:53;31.37;;;27.97;;
9007;SDS011;62813;51.424;6.762;2023-09-12T07:19:20;26.57;;;18.60;;
9007;SDS011;62813;51.424;6.762;2023-09-12T07:21:47;19.53;;;15.10;;
9007;SDS011;62813;51.424;6.762;2023-09-12T07:24:14;42.80;;;37.23;;
9007;SDS011;62813;51.424;6.762;2023-09-12T07:26:41;29.83;;;26.03;;
9007;SDS011;62813;51.424;6.762;2023-09-12T07:29:08;8.83;;;6.77;;
9007;SDS011;62813;51.424;6.762;2023-09-12T07:31:34;13.40;;;5.97;;
9007;SDS011;62813;51.424;6.762;2023-09-12T07:34:01;5.90;;;3.80;;
9007;SDS011;62813;51.424;6.762;2023-09-12T07:36:32;4.40;;;3.43;;
9007;SDS011;62813;51.424;6.762;2023-09-12T07:38:59;4.90;;;3.43;;
9007;SDS011;62813;51.424;6.762;2023-09-12T07:41:26;9.60;;;3.80;;
9007;SDS011;62813;51.424;6.762;2023-09-12T07:43:52;5.67;;;3.50;;
9007;SDS011;62813;51.424;6.762;2023-09-12T07:46:19;5.67;;;3.33;;
9007;SDS011;62813;51.424;6.762;2023-09-12T07:48:46;5.23;;;3.67;;
9007;SDS011;62813;51.424;6.762;2023-09-12T07:51:13;5.37;;;3.70;;
9007;SDS011;62813;51.424;6.762;2023-09-12T07:53:41;7.93;;;3.73;;
9007;SDS011;62813;51.424;6.762;2023-09-12T07:56:08;6.30;;;3.87;;
9007;SDS011;62813;51.424;6.762;2023-09-12T07:58:38;7.37;;;3.80;;
9007;SDS011;62813;51.424;6.762;2023-09-12T08:01:06;21.83;;;19.33;;
9007;SDS011;62813;51.424;6.762;2023-09-12T08:03:34;27.87;;;24.70;;
9007;SDS011;62813;51.424;6.762;2023-09-12T08:06:03;10.93;;;9.80;;
9007;SDS011;62813;51.424;6.762;2023-09-12T08:08:29;7.40;;;6.23;;
9007;SDS011;62813;51.424;6.762;2023-09-12T08:10:57;6.63;;;5.27;;
9007;SDS011;62813;51.424;6.762;2023-09-12T08:13:25;7.50;;;6.20;;
9007;SDS011;62813;51.424;6.762;2023-09-12T08:15:54;7.93;;;6.90;;
9007;SDS011;62813;51.424;6.762;2023-09-12T08:18:21;8.90;;;7.13;;
9007;SDS011;62813;51.424;6.762;2023-09-12T08:20:52;8.07;;;7.27;;
9007;SDS011;62813;51.424;6.762;2023-09-12T08:23:19;7.63;;;6.80;;
9007;SDS011;62813;51.424;6.762;2023-09-12T08:25:46;9.20;;;7.33;;
9007;SDS011;62813;51.424;6.762;2023-09-12T08:28:13;8.30;;;6.47;;
9007;SDS011;62813;51.424;6.762;2023-09-12T08:30:40;10.10;;;7.47;;
9007;SDS011;62813;51.424;6.762;2023-09-12T08:33:06;10.93;;;7.17;;
9007;SDS011;62813;51.424;6.762;2023-09-12T08:35:33;9.20;;;7.63;;
9007;SDS011;62813;51.424;6.762;2023-09-12T08:38:00;7.77;;;6.97;;
9007;SDS011;62813;51.424;6.762;2023-09-12T08:40:26;11.77;;;10.00;;
9007;SDS011;62813;51.424;6.762;2023-09-12T08:42:53;15.87;;;13.50;;
9007;SDS011;62813;51.424;6.762;2023-09-12T08:45:22;13.00;;;9.87;;
9007;SDS011;62813;51.424;6.762;2023-09-12T08:47:50;11.00;;;10.00;;
9007;SDS011;62813;51.424;6.762;2023-09-12T08:50:20;11.07;;;9.97;;
9007;SDS011;62813;51.424;6.762;2023-09-12T08:52:47;14.93;;;13.33;;
9007;SDS011;62813;51.424;6.762;2023-09-12T08:55:31;14.87;;;13.33;;
9007;SDS011;62813;51.424;6.762;2023-09-12T08:57:59;17.97;;;16.17;;
9007;SDS011;62813;51.424;6.762;2023-09-12T09:00:29;20.37;;;18.37;;
9007;SDS011;62813;51.424;6.762;2023-09-12T09:02:56;24.20;;;20.17;;
9007;SDS011;62813;51.424;6.762;2023-09-12T09:05:24;24.10;;;21.33;;
9007;SDS011;62813;51.424;6.762;2023-09-12T09:07:53;24.33;;;21.80;;
9007;SDS011;62813;51.424;6.762;2023-09-12T09:10:21;23.47;;;20.97;;
9007;SDS011;62813;51.424;6.762;2023-09-12T09:13:03;24.03;;;18.83;;
9007;SDS011;62813;51.424;6.762;2023-09-12T09:15:32;20.93;;;17.57;;
9007;SDS011;62813;51.424;6.762;2023-09-12T09:18:01;19.50;;;17.03;;
9007;SDS011;62813;51.424;6.762;2023-09-12T09:20:31;18.13;;;15.53;;
9007;SDS011;62813;51.424;6.762;2023-09-12T09:23:01;21.50;;;17.00;;
9007;SDS011;62813;51.424;6.762;2023-09-12T09:25:35;24.80;;;18.70;;
9007;SDS011;62813;51.424;6.762;2023-09-12T09:28:04;27.57;;;18.83;;
9007;SDS011;62813;51.424;6.762;2023-09-12T09:30:39;21.63;;;17.63;;
9007;SDS011;62813;51.424;6.762;2023-09-12T09:33:07;20.83;;;17.07;;
9007;SDS011;62813;51.424;6.762;2023-09-12T09:35:35;21.03;;;17.20;;
9007;SDS011;62813;51.424;6.762;2023-09-12T09:38:03;23.77;;;18.03;;
9007;SDS011;62813;51.424;6.762;2023-09-12T09:40:32;27.10;;;23.07;;
9007;SDS011;62813;51.424;6.762;2023-09-12T09:43:00;29.73;;;26.53;;
9007;SDS011;62813;51.424;6.762;2023-09-12T09:45:33;26.80;;;23.90;;
9007;SDS011;62813;51.424;6.762;2023-09-12T09:48:10;33.80;;;30.17;;
9007;SDS011;62813;51.424;6.762;2023-09-12T09:50:36;36.33;;;32.33;;
9007;SDS011;62813;51.424;6.762;2023-09-12T09:53:03;36.17;;;31.20;;
9007;SDS011;62813;51.424;6.762;2023-09-12T09:55:31;38.97;;;33.67;;
9007;SDS011;62813;51.424;6.762;2023-09-12T09:58:01;42.60;;;37.73;;
9007;SDS011;62813;51.424;6.762;2023-09-12T10:00:36;40.57;;;34.47;;
9007;SDS011;62813;51.424;6.762;2023-09-12T10:03:04;31.63;;;27.33;;
9007;SDS011;62813;51.424;6.762;2023-09-12T10:05:32;37.87;;;33.13;;
9007;SDS011;62813;51.424;6.762;2023-09-12T10:08:00;39.60;;;33.67;;
9007;SDS011;62813;51.424;6.762;2023-09-12T10:10:29;34.43;;;28.43;;
9007;SDS011;62813;51.424;6.762;2023-09-12T10:12:57;28.87;;;25.43;;
9007;SDS011;62813;51.424;6.762;2023-09-12T10:15:28;25.23;;;22.53;;
9007;SDS011;62813;51.424;6.762;2023-09-12T10:17:57;23.17;;;20.57;;
9007;SDS011;62813;51.424;6.762;2023-09-12T10:20:48;29.13;;;25.87;;
9007;SDS011;62813;51.424;6.762;2023-09-12T10:23:23;20.13;;;16.13;;
9007;SDS011;62813;51.424;6.762;2023-09-12T10:25:54;17.00;;;15.07;;
9007;SDS011;62813;51.424;6.762;2023-09-12T10:28:22;17.90;;;15.90;;
9007;SDS011;62813;51.424;6.762;2023-09-12T10:30:51;16.60;;;12.40;;
9007;SDS011;62813;51.424;6.762;2023-09-12T10:33:19;14.03;;;11.63;;
9007;SDS011;62813;51.424;6.762;2023-09-12T10:35:46;14.83;;;12.77;;
9007;SDS011;62813;51.424;6.762;2023-09-12T10:38:15;14.10;;;12.03;;
9007;SDS011;62813;51.424;6.762;2023-09-12T10:40:44;12.43;;;11.23;;
9007;SDS011;62813;51.424;6.762;2023-09-12T10:43:13;16.50;;;12.93;;
9007;SDS011;62813;51.424;6.762;2023-09-12T10:45:41;18.20;;;12.80;;
9007;SDS011;62813;51.424;6.762;2023-09-12T10:48:09;13.17;;;10.60;;
9007;SDS011;62813;51.424;6.762;2023-09-12T10:50:37;17.40;;;13.30;;
9007;SDS011;62813;51.424;6.762;2023-09-12T10:53:12;13.27;;;10.13;;
9007;SDS011;62813;51.424;6.762;2023-09-12T10:55:44;13.33;;;11.40;;
9007;SDS011;62813;51.424;6.762;2023-09-12T10:58:24;10.50;;;9.40;;
9007;SDS011;62813;51.424;6.762;2023-09-12T11:01:37;13.43;;;10.67;;
9007;SDS011;62813;51.424;6.762;2023-09-12T11:03:54;14.13;;;10.77;;
9007;SDS011;62813;51.424;6.762;2023-09-12T11:06:22;12.53;;;9.63;;
9007;SDS011;62813;51.424;6.762;2023-09-12T11:09:28;11.70;;;8.57;;
9007;SDS011;62813;51.424;6.762;2023-09-12T11:12:33;11.23;;;8.60;;
9007;SDS011;62813;51.424;6.762;2023-09-12T11:15:05;10.37;;;8.37;;
9007;SDS011;62813;51.424;6.762;2023-09-12T11:17:39;12.03;;;7.83;;
9007;SDS011;62813;51.424;6.762;2023-09-12T11:20:09;11.73;;;8.40;;
9007;SDS011;62813;51.424;6.762;2023-09-12T11:22:37;9.67;;;8.00;;
9007;SDS011;62813;51.424;6.762;2023-09-12T11:25:21;12.33;;;8.73;;
9007;SDS011;62813;51.424;6.762;2023-09-12T11:30:20;11.40;;;10.17;;
9007;SDS011;62813;51.424;6.762;2023-09-12T11:32:51;11.97;;;9.93;;
9007;SDS011;62813;51.424;6.762;2023-09-12T11:35:25;10.77;;;9.43;;
9007;SDS011;62813;51.424;6.762;2023-09-12T11:37:56;12.50;;;9.10;;
9007;SDS011;62813;51.424;6.762;2023-09-12T11:43:00;11.83;;;10.27;;
9007;SDS011;62813;51.424;6.762;2023-09-12T11:45:28;12.23;;;9.40;;
9007;SDS011;62813;51.424;6.762;2023-09-12T11:47:58;9.53;;;8.53;;
9007;SDS011;62813;51.424;6.762;2023-09-12T11:50:25;12.67;;;9.50;;
9007;SDS011;62813;51.424;6.762;2023-09-12T11:55:54;10.27;;;8.77;;
9007;SDS011;62813;51.424;6.762;2023-09-12T11:58:26;11.43;;;9.53;;
9007;SDS011;62813;51.424;6.762;2023-09-12T12:00:56;11.10;;;9.60;;
9007;SDS011;62813;51.424;6.762;2023-09-12T12:03:26;10.47;;;9.57;;
9007;SDS011;62813;51.424;6.762;2023-09-12T12:05:54;11.43;;;8.80;;
9007;SDS011;62813;51.424;6.762;2023-09-12T12:08:22;11.93;;;9.97;;
9007;SDS011;62813;51.424;6.762;2023-09-12T12:10:53;12.47;;;10.17;;
9007;SDS011;62813;51.424;6.762;2023-09-12T12:13:21;11.90;;;10.67;;
9007;SDS011;62813;51.424;6.762;2023-09-12T12:16:14;11.40;;;10.13;;
9007;SDS011;62813;51.424;6.762;2023-09-12T12:18:44;11.50;;;10.33;;
9007;SDS011;62813;51.424;6.762;2023-09-12T12:21:11;10.47;;;9.47;;
9007;SDS011;62813;51.424;6.762;2023-09-12T12:23:38;13.90;;;10.33;;
9007;SDS011;62813;51.424;6.762;2023-09-12T12:26:08;10.40;;;9.27;;
9007;SDS011;62813;51.424;6.762;2023-09-12T12:28:36;12.33;;;11.13;;
9007;SDS011;62813;51.424;6.762;2023-09-12T12:31:03;11.90;;;10.70;;
9007;SDS011;62813;51.424;6.762;2023-09-12T12:33:31;10.60;;;9.53;;
9007;SDS011;62813;51.424;6.762;2023-09-12T12:36:18;12.23;;;10.10;;
9007;SDS011;62813;51.424;6.762;2023-09-12T12:38:45;10.80;;;9.87;;
9007;SDS011;62813;51.424;6.762;2023-09-12T12:41:25;9.90;;;8.90;;
9007;SDS011;62813;51.424;6.762;2023-09-12T12:44:08;9.90;;;8.87;;
9007;SDS011;62813;51.424;6.762;2023-09-12T12:46:37;10.63;;;9.63;;
9007;SDS011;62813;51.424;6.762;2023-09-12T12:49:15;10.23;;;9.07;;
9007;SDS011;62813;51.424;6.762;2023-09-12T12:51:42;13.47;;;10.70;;
9007;SDS011;62813;51.424;6.762;2023-09-12T12:54:09;13.37;;;11.33;;
9007;SDS011;62813;51.424;6.762;2023-09-12T12:56:35;13.10;;;11.73;;
9007;SDS011;62813;51.424;6.762;2023-09-12T12:59:04;14.20;;;12.90;;
9007;SDS011;62813;51.424;6.762;2023-09-12T13:01:34;12.30;;;11.00;;
9007;SDS011;62813;51.424;6.762;2023-09-12T13:04:06;12.43;;;11.23;;
9007;SDS011;62813;51.424;6.762;2023-09-12T13:06:34;11.90;;;10.67;;
9007;SDS011;62813;51.424;6.762;2023-09-12T13:09:05;14.47;;;12.97;;
9007;SDS011;62813;51.424;6.762;2023-09-12T13:11:33;15.47;;;12.23;;
9007;SDS011;62813;51.424;6.762;2023-09-12T13:14:01;14.23;;;12.83;;
9007;SDS011;62813;51.424;6.762;2023-09-12T13:16:30;15.83;;;13.23;;
9007;SDS011;62813;51.424;6.762;2023-09-12T13:18:57;12.53;;;11.33;;
9007;SDS011;62813;51.424;6.762;2023-09-12T13:21:24;11.73;;;10.53;;
9007;SDS011;62813;51.424;6.762;2023-09-12T13:23:51;14.73;;;11.63;;
9007;SDS011;62813;51.424;6.762;2023-09-12T13:26:17;11.63;;;10.43;;
9007;SDS011;62813;51.424;6.762;2023-09-12T13:28:44;12.70;;;11.23;;
9007;SDS011;62813;51.424;6.762;2023-09-12T13:31:11;16.10;;;12.50;;
9007;SDS011;62813;51.424;6.762;2023-09-12T13:33:39;16.40;;;14.73;;
9007;SDS011;62813;51.424;6.762;2023-09-12T13:36:06;17.63;;;15.63;;
9007;SDS011;62813;51.424;6.762;2023-09-12T13:38:33;15.53;;;13.93;;
9007;SDS011;62813;51.424;6.762;2023-09-12T13:41:00;17.00;;;14.70;;
9007;SDS011;62813;51.424;6.762;2023-09-12T13:43:27;14.57;;;13.10;;
9007;SDS011;62813;51.424;6.762;2023-09-12T13:45:54;15.50;;;13.10;;
9007;SDS011;62813;51.424;6.762;2023-09-12T13:48:21;12.43;;;11.33;;
9007;SDS011;62813;51.424;6.762;2023-09-12T13:50:48;12.17;;;10.93;;
9007;SDS011;62813;51.424;6.762;2023-09-12T13:53:15;13.77;;;12.47;;
9007;SDS011;62813;51.424;6.762;2023-09-12T13:55:42;12.60;;;11.40;;
9007;SDS011;62813;51.424;6.762;2023-09-12T13:58:15;11.40;;;10.50;;
9007;SDS011;62813;51.424;6.762;2023-09-12T14:00:42;9.70;;;8.70;;
9007;SDS011;62813;51.424;6.762;2023-09-12T14:03:08;9.10;;;8.20;;
9007;SDS011;62813;51.424;6.762;2023-09-12T14:05:35;9.47;;;8.00;;
9007;SDS011;62813;51.424;6.762;2023-09-12T14:08:03;10.37;;;9.50;;
9007;SDS011;62813;51.424;6.762;2023-09-12T14:10:30;10.20;;;9.20;;
9007;SDS011;62813;51.424;6.762;2023-09-12T14:13:03;12.47;;;10.80;;
9007;SDS011;62813;51.424;6.762;2023-09-12T14:15:33;12.67;;;11.37;;
9007;SDS011;62813;51.424;6.762;2023-09-12T14:18:01;15.90;;;13.93;;
9007;SDS011;62813;51.424;6.762;2023-09-12T14:20:28;14.10;;;12.70;;
9007;SDS011;62813;51.424;6.762;2023-09-12T14:22:56;14.07;;;12.87;;
9007;SDS011;62813;51.424;6.762;2023-09-12T14:25:24;16.40;;;13.10;;
9007;SDS011;62813;51.424;6.762;2023-09-12T14:27:53;14.40;;;12.83;;
9007;SDS011;62813;51.424;6.762;2023-09-12T14:30:19;14.43;;;12.67;;
9007;SDS011;62813;51.424;6.762;2023-09-12T14:32:49;15.10;;;13.33;;
9007;SDS011;62813;51.424;6.762;2023-09-12T14:35:15;14.20;;;11.23;;
9007;SDS011;62813;51.424;6.762;2023-09-12T14:37:42;13.23;;;12.03;;
9007;SDS011;62813;51.424;6.762;2023-09-12T14:40:09;14.50;;;11.87;;
9007;SDS011;62813;51.424;6.762;2023-09-12T14:42:37;14.20;;;12.27;;
9007;SDS011;62813;51.424;6.762;2023-09-12T14:45:04;11.60;;;10.40;;
9007;SDS011;62813;51.424;6.762;2023-09-12T14:47:32;11.27;;;10.17;;
9007;SDS011;62813;51.424;6.762;2023-09-12T14:49:59;12.30;;;9.77;;
9007;SDS011;62813;51.424;6.762;2023-09-12T14:52:26;10.87;;;9.77;;
9007;SDS011;62813;51.424;6.762;2023-09-12T14:54:56;15.47;;;9.57;;
9007;SDS011;62813;51.424;6.762;2023-09-12T14:57:25;9.90;;;8.90;;